createdAt,value
2019-03-09T00:04:56.333Z,15.53
2019-03-09T00:10:51.351Z,15.49
2019-03-09T00:16:46.329Z,12.07
2019-03-09T00:22:41.371Z,12.59
2019-03-09T00:28:36.356Z,13.4
2019-03-09T00:34:31.353Z,17.94
2019-03-09T00:40:26.372Z,13.37
2019-03-09T00:46:21.394Z,15.07
2019-03-09T00:52:16.375Z,15.28
2019-03-09T00:58:11.399Z,12.91
2019-03-09T01:04:06.397Z,12.89
2019-03-09T01:10:01.401Z,16.26
2019-03-09T01:15:56.427Z,13.69
2019-03-09T01:21:51.418Z,15.01
2019-03-09T01:27:46.385Z,15.11
2019-03-09T01:33:41.397Z,14.8
2019-03-09T01:39:36.388Z,12.79
2019-03-09T01:45:31.397Z,17.83
2019-03-09T01:51:26.486Z,15.26
2019-03-09T01:57:21.454Z,17.12
2019-03-09T02:03:16.442Z,11.44
2019-03-09T02:09:11.532Z,17.74
2019-03-09T02:15:06.430Z,12.53
2019-03-09T02:21:01.423Z,13.06
2019-03-09T02:26:56.425Z,11.86
2019-03-09T02:32:51.467Z,15.9
2019-03-09T02:38:46.435Z,13.72
2019-03-09T02:44:41.442Z,14.92
2019-03-09T02:50:36.424Z,9.07
2019-03-09T02:56:31.549Z,13.23
2019-03-09T03:02:26.467Z,10.07
2019-03-09T03:08:21.435Z,11.09
2019-03-09T03:14:16.460Z,12.09
2019-03-09T03:20:11.447Z,14.23
2019-03-09T03:26:06.503Z,11.82
2019-03-09T03:32:01.469Z,10.75
2019-03-09T03:37:56.443Z,9.01
2019-03-09T03:43:51.498Z,11.04
2019-03-09T03:49:46.472Z,13.38
2019-03-09T03:55:41.506Z,11.48
2019-03-09T04:01:36.458Z,9.24
2019-03-09T04:07:31.517Z,13.1
2019-03-09T04:13:26.533Z,14.26
2019-03-09T04:19:21.500Z,9.25
2019-03-09T04:25:16.520Z,11.03
2019-03-09T04:31:11.486Z,9.41
2019-03-09T04:37:06.510Z,10.93
2019-03-09T04:43:01.472Z,8.7
2019-03-09T04:48:56.495Z,7.76
2019-03-09T04:54:51.488Z,12.85
2019-03-09T05:00:46.530Z,7.08
2019-03-09T05:06:41.565Z,11.6
2019-03-09T05:12:36.516Z,9.02
2019-03-09T05:18:31.527Z,7.05
2019-03-09T05:24:26.491Z,9.98
2019-03-09T05:30:21.529Z,7.74
2019-03-09T05:36:16.516Z,7.53
2019-03-09T05:42:11.554Z,9.47
2019-03-09T05:48:06.613Z,14.75
2019-03-09T05:54:01.563Z,15.2
2019-03-09T05:59:56.527Z,11.15
2019-03-09T06:05:51.545Z,10.65
2019-03-09T06:11:46.605Z,14.5
2019-03-09T06:17:41.560Z,12.7
2019-03-09T06:23:36.558Z,11.33
2019-03-09T06:29:31.568Z,5.92
2019-03-09T06:35:26.552Z,7
2019-03-09T06:41:21.564Z,11.92
2019-03-09T06:47:16.603Z,7.83
2019-03-09T06:53:11.614Z,10.71
2019-03-09T06:59:06.560Z,19.24
2019-03-09T07:05:01.595Z,14.23
2019-03-09T07:10:56.572Z,11.16
2019-03-09T07:16:51.598Z,23.5
2019-03-09T07:22:46.593Z,23.08
2019-03-09T07:28:41.609Z,19.23
2019-03-09T07:34:36.579Z,26.49
2019-03-09T07:40:31.601Z,29.64
2019-03-09T07:46:26.585Z,22.61
2019-03-09T07:52:21.603Z,21.29
2019-03-09T07:58:16.605Z,26.08
2019-03-09T08:04:11.601Z,32.85
2019-03-09T08:10:06.605Z,30.19
2019-03-09T08:16:01.615Z,34.92
2019-03-09T08:21:56.607Z,29
2019-03-09T08:27:51.616Z,29.02
2019-03-09T08:33:46.649Z,31.98
2019-03-09T08:39:41.652Z,24.58
2019-03-09T08:45:36.627Z,24.58
2019-03-09T08:51:31.668Z,24
2019-03-09T08:57:26.683Z,42.7
2019-03-09T09:03:21.633Z,29.73
2019-03-09T09:09:16.654Z,28.76
2019-03-09T09:15:11.658Z,24.6
2019-03-09T09:21:06.658Z,19.82
2019-03-09T09:27:01.728Z,24.19
2019-03-09T09:32:56.708Z,18.84
2019-03-09T09:38:51.653Z,30.1
2019-03-09T09:44:46.667Z,26.6
2019-03-09T09:50:41.669Z,21.41
2019-03-09T09:56:36.700Z,19.8
2019-03-09T10:02:31.669Z,21.42
2019-03-09T10:08:26.685Z,19.41
2019-03-09T10:14:21.687Z,16.78
2019-03-09T10:20:16.681Z,15.53
2019-03-09T10:26:11.729Z,20.15
2019-03-09T10:32:06.755Z,20.95
2019-03-09T10:38:01.732Z,17.76
2019-03-09T10:43:56.694Z,19.86
2019-03-09T10:49:51.713Z,18.7
2019-03-09T10:55:46.764Z,20.04
2019-03-09T11:01:41.739Z,14.69
2019-03-09T11:07:36.757Z,18.08
2019-03-09T11:13:31.711Z,14.48
2019-03-09T11:19:26.731Z,13.93
2019-03-09T11:25:21.742Z,13.99
2019-03-09T11:31:16.745Z,12.79
2019-03-09T11:37:11.741Z,20.61
2019-03-09T11:43:06.722Z,16.01
2019-03-09T11:49:01.744Z,8.92
2019-03-09T11:54:56.748Z,14.8
2019-03-09T12:00:51.753Z,14.25
2019-03-09T12:06:46.749Z,14.81
2019-03-09T12:12:41.746Z,16.71
2019-03-09T12:18:36.762Z,16.97
2019-03-09T12:24:31.764Z,15.28
2019-03-09T12:30:26.795Z,16.6
2019-03-09T12:36:21.776Z,10.79
2019-03-09T12:42:16.801Z,11.33
2019-03-09T12:48:11.764Z,12.49
2019-03-09T12:54:06.769Z,10.25
2019-03-09T13:00:01.775Z,14.43
2019-03-09T13:05:56.798Z,9.62
2019-03-09T13:11:51.789Z,11.43
2019-03-09T13:17:46.791Z,9.5
2019-03-09T13:23:41.840Z,10.65
2019-03-09T13:29:36.836Z,8.1
2019-03-09T13:35:31.793Z,10.8
2019-03-09T13:41:26.843Z,10.33
2019-03-09T13:47:21.818Z,10.17
2019-03-09T13:53:16.827Z,11.51
2019-03-09T13:59:11.804Z,10.97
2019-03-09T14:05:06.815Z,13.69
2019-03-09T14:11:01.832Z,9.21
2019-03-09T14:16:56.845Z,7.57
2019-03-09T14:22:51.816Z,6.23
2019-03-09T14:28:46.852Z,9.86
2019-03-09T14:34:41.854Z,11.05
2019-03-09T14:40:36.852Z,13.32
2019-03-09T14:46:31.845Z,11.29
2019-03-09T14:52:26.879Z,7.85
2019-03-09T14:58:22.032Z,13.97
2019-03-09T15:04:16.879Z,13.55
2019-03-09T15:10:11.873Z,11.13
2019-03-09T15:16:06.880Z,7.28
2019-03-09T15:22:01.860Z,14.01
2019-03-09T15:27:56.882Z,14.46
2019-03-09T15:33:51.884Z,19.04
2019-03-09T15:39:46.862Z,10.63
2019-03-09T15:45:41.905Z,8.56
2019-03-09T15:51:36.921Z,13.6
2019-03-09T15:57:31.894Z,12.5
2019-03-09T16:03:26.888Z,10.88
2019-03-09T16:09:21.901Z,13.48
2019-03-09T16:15:16.897Z,16.72
2019-03-09T16:21:11.878Z,16.63
2019-03-09T16:27:06.902Z,12.29
2019-03-09T16:33:01.911Z,12.52
2019-03-09T16:38:56.919Z,16.49
2019-03-09T16:44:51.920Z,12.63
2019-03-09T16:50:46.940Z,13.25
2019-03-09T16:56:41.911Z,12.74
2019-03-09T17:02:36.973Z,12.22
2019-03-09T17:08:31.923Z,17.92
2019-03-09T17:14:26.950Z,17.08
2019-03-09T17:20:21.922Z,12.81
2019-03-09T17:26:16.934Z,16.16
2019-03-09T17:32:11.918Z,14.33
2019-03-09T17:38:06.961Z,9.11
2019-03-09T17:44:02.121Z,17.93
2019-03-09T17:49:56.932Z,20.81
2019-03-09T17:55:51.985Z,12.82
2019-03-09T18:01:46.942Z,15.03
2019-03-09T18:07:41.974Z,19.42
2019-03-09T18:13:36.946Z,15.92
2019-03-09T18:19:31.958Z,15.81
2019-03-09T18:25:26.970Z,17.52
2019-03-09T18:31:21.964Z,21.28
2019-03-09T18:37:16.976Z,17.43
2019-03-09T18:43:11.972Z,19.67
2019-03-09T18:49:06.957Z,15.26
2019-03-09T18:55:01.993Z,31.82
2019-03-09T19:00:57.007Z,66.25
2019-03-09T19:06:51.980Z,37.95
2019-03-09T19:12:47.051Z,41.13
2019-03-09T19:18:42.007Z,59.17
2019-03-09T19:24:37.089Z,43.21
2019-03-09T19:30:32.012Z,42.26
2019-03-09T19:36:27.011Z,38.68
2019-03-09T19:42:22.036Z,21.55
2019-03-09T19:48:17.004Z,32.84
2019-03-09T19:54:12.024Z,23.05
2019-03-09T20:00:07.028Z,39.67
2019-03-09T20:06:02.042Z,63.59
2019-03-09T20:11:57.048Z,83.42
2019-03-09T20:17:52.017Z,81.13
2019-03-09T20:23:47.038Z,68.13
2019-03-09T20:29:42.088Z,41
2019-03-09T20:35:37.033Z,26.17
2019-03-09T20:41:32.042Z,21.05
2019-03-09T20:47:27.054Z,15.76
2019-03-09T20:53:22.038Z,19.95
2019-03-09T20:59:17.072Z,22.33
2019-03-09T21:05:12.081Z,19.8
2019-03-09T21:11:07.068Z,18.62
2019-03-09T21:17:02.049Z,22.86
2019-03-09T21:22:57.076Z,23.04
2019-03-09T21:28:52.087Z,28.84
2019-03-09T21:34:47.108Z,25.28
2019-03-09T21:40:42.070Z,29.49
2019-03-09T21:46:37.123Z,21.28
2019-03-09T21:52:32.101Z,19
2019-03-09T21:58:27.097Z,26.37
2019-03-09T22:04:22.101Z,19.81
2019-03-09T22:10:17.138Z,26.75
2019-03-09T22:16:12.110Z,23.14
2019-03-09T22:22:07.123Z,23.25
2019-03-09T22:28:02.130Z,18.21
2019-03-09T22:33:57.105Z,27.38
2019-03-09T22:39:52.106Z,16.77
2019-03-09T22:45:47.143Z,30.57
2019-03-09T22:51:42.136Z,22.14
2019-03-09T22:57:37.164Z,21.25
2019-03-09T23:03:32.140Z,26.96
2019-03-09T23:09:27.148Z,25.41
2019-03-09T23:15:22.147Z,22.6
2019-03-09T23:21:17.181Z,21.49
2019-03-09T23:27:12.131Z,21.52
2019-03-09T23:33:07.134Z,16.48
2019-03-09T23:39:02.146Z,23.34
2019-03-09T23:44:57.164Z,22.02
2019-03-09T23:50:52.198Z,19.52
2019-03-09T23:56:47.182Z,20.3
